NCAR-RAP Real-Time Weather Data

Output produced by METARs form (08 May 2021  01:56 UTC)
found at http://weather.rap.ucar.edu/surface/
 
KLEE 080053Z AUTO 01006KT 10SM CLR 23/08 A3002 RMK AO2 SLP163 T02280078
KLEE 072353Z AUTO 01007KT 10SM CLR 25/07 A3000 RMK AO2 SLP157 T02500067 10289 20250 53005
KLEE 072253Z AUTO 34009G15KT 10SM CLR 27/04 A2999 RMK AO2 SLP154 T02670044
KLEE 072153Z 01010KT 10SM CLR 28/03 A2998 RMK AO2 SLP151 T02780033
KLEE 072053Z 30008KT 10SM CLR 28/04 A2998 RMK AO2 SLP152 T02830039 56019
KLEE 071953Z 31011G16KT 10SM CLR 28/04 A3000 RMK AO2 SLP156 T02830044
KLEE 071853Z 32006G17KT 10SM CLR 28/08 A3002 RMK AO2 SLP164 T02780083
KLEE 071753Z 32011G15KT 10SM CLR 28/09 A3004 RMK AO2 SLP171 T02780089 10278 20211 58011
KLEE 071729Z 31010KT 10SM FEW002 27/09 A3005 RMK AO2 T02720089
KLEE 071653Z 33007KT 10SM CLR 26/08 A3006 RMK AO2 SLP177 T02610083
KLEE 071553Z 30006G15KT 10SM CLR 26/09 A3007 RMK AO2 SLP182 T02560089
KLEE 071453Z 33012G16KT 10SM CLR 24/09 A3007 RMK AO2 SLP182 T02440089 51008
KLEE 071414Z 33010KT 10SM FEW002 24/09 A3007 RMK AO2 T02390094
KLEE 071353Z 33010KT 10SM CLR 24/11 A3007 RMK AO2 SLP181 T02390106
KLEE 071253Z 34008KT 10SM CLR 22/11 A3006 RMK AO2 SLP177 T02220111
KLEE 071153Z 34011KT 10SM CLR 21/12 A3005 RMK AO2 SLP174 70032 T02110122 10228 20200 53019
KLEE 071053Z 35008KT 10SM CLR 21/12 A3002 RMK AO2 SLP165 T02060122